sensor_id;sensor_type;location;lat;lon;timestamp;P1;durP1;ratioP1;P2;durP2;ratioP2
34196;SDS011;36594;45.192;5.722;2023-04-07T00:00:30;0.20;;;0.20;;
34196;SDS011;36594;45.192;5.722;2023-04-07T00:03:19;0.17;;;0.17;;
34196;SDS011;36594;45.192;5.722;2023-04-07T00:06:07;0.28;;;0.28;;
34196;SDS011;36594;45.192;5.722;2023-04-07T00:08:56;0.20;;;0.20;;
34196;SDS011;36594;45.192;5.722;2023-04-07T00:11:45;0.20;;;0.20;;
34196;SDS011;36594;45.192;5.722;2023-04-07T00:14:34;0.60;;;0.20;;
34196;SDS011;36594;45.192;5.722;2023-04-07T00:17:22;0.25;;;0.25;;
34196;SDS011;36594;45.192;5.722;2023-04-07T00:20:11;0.10;;;0.10;;
34196;SDS011;36594;45.192;5.722;2023-04-07T00:22:59;0.30;;;0.30;;
34196;SDS011;36594;45.192;5.722;2023-04-07T00:25:48;0.10;;;0.10;;
34196;SDS011;36594;45.192;5.722;2023-04-07T00:28:36;0.30;;;0.30;;
34196;SDS011;36594;45.192;5.722;2023-04-07T00:31:25;0.23;;;0.23;;
34196;SDS011;36594;45.192;5.722;2023-04-07T00:34:13;0.30;;;0.30;;
34196;SDS011;36594;45.192;5.722;2023-04-07T00:37:02;0.20;;;0.20;;
34196;SDS011;36594;45.192;5.722;2023-04-07T00:39:52;0.50;;;0.30;;
34196;SDS011;36594;45.192;5.722;2023-04-07T00:42:41;0.20;;;0.20;;
34196;SDS011;36594;45.192;5.722;2023-04-07T00:45:29;0.30;;;0.30;;
34196;SDS011;36594;45.192;5.722;2023-04-07T00:48:18;0.20;;;0.20;;
34196;SDS011;36594;45.192;5.722;2023-04-07T00:51:08;0.60;;;0.30;;
34196;SDS011;36594;45.192;5.722;2023-04-07T00:53:56;0.40;;;0.40;;
34196;SDS011;36594;45.192;5.722;2023-04-07T00:56:45;0.20;;;0.20;;
34196;SDS011;36594;45.192;5.722;2023-04-07T00:59:33;0.30;;;0.30;;
34196;SDS011;36594;45.192;5.722;2023-04-07T01:02:40;0.27;;;0.27;;
34196;SDS011;36594;45.192;5.722;2023-04-07T01:05:54;0.25;;;0.25;;
34196;SDS011;36594;45.192;5.722;2023-04-07T01:11:42;0.88;;;0.28;;
34196;SDS011;36594;45.192;5.722;2023-04-07T01:14:39;0.20;;;0.20;;
34196;SDS011;36594;45.192;5.722;2023-04-07T01:17:33;0.40;;;0.40;;
34196;SDS011;36594;45.192;5.722;2023-04-07T01:20:24;0.20;;;0.20;;
34196;SDS011;36594;45.192;5.722;2023-04-07T01:26:18;0.40;;;0.40;;
34196;SDS011;36594;45.192;5.722;2023-04-07T01:32:08;0.10;;;0.10;;
34196;SDS011;36594;45.192;5.722;2023-04-07T01:34:58;1.10;;;0.35;;
34196;SDS011;36594;45.192;5.722;2023-04-07T01:37:49;0.30;;;0.30;;
34196;SDS011;36594;45.192;5.722;2023-04-07T01:40:39;0.20;;;0.20;;
34196;SDS011;36594;45.192;5.722;2023-04-07T01:43:29;0.33;;;0.33;;
34196;SDS011;36594;45.192;5.722;2023-04-07T01:46:19;0.30;;;0.30;;
34196;SDS011;36594;45.192;5.722;2023-04-07T01:49:08;0.23;;;0.23;;
34196;SDS011;36594;45.192;5.722;2023-04-07T01:51:59;0.20;;;0.20;;
34196;SDS011;36594;45.192;5.722;2023-04-07T01:54:48;0.40;;;0.30;;
34196;SDS011;36594;45.192;5.722;2023-04-07T01:57:36;0.30;;;0.30;;
34196;SDS011;36594;45.192;5.722;2023-04-07T02:00:26;0.20;;;0.20;;
34196;SDS011;36594;45.192;5.722;2023-04-07T02:03:17;0.20;;;0.20;;
34196;SDS011;36594;45.192;5.722;2023-04-07T02:06:07;0.20;;;0.20;;
34196;SDS011;36594;45.192;5.722;2023-04-07T02:09:01;0.10;;;0.10;;
34196;SDS011;36594;45.192;5.722;2023-04-07T02:11:51;0.20;;;0.20;;
34196;SDS011;36594;45.192;5.722;2023-04-07T02:14:42;0.30;;;0.30;;
34196;SDS011;36594;45.192;5.722;2023-04-07T02:17:33;0.30;;;0.30;;
34196;SDS011;36594;45.192;5.722;2023-04-07T02:20:23;0.35;;;0.23;;
34196;SDS011;36594;45.192;5.722;2023-04-07T02:23:13;0.20;;;0.20;;
34196;SDS011;36594;45.192;5.722;2023-04-07T02:26:03;0.20;;;0.20;;
34196;SDS011;36594;45.192;5.722;2023-04-07T02:28:51;0.10;;;0.10;;
34196;SDS011;36594;45.192;5.722;2023-04-07T02:31:39;0.30;;;0.30;;
34196;SDS011;36594;45.192;5.722;2023-04-07T02:34:28;0.25;;;0.25;;
34196;SDS011;36594;45.192;5.722;2023-04-07T02:37:17;0.20;;;0.20;;
34196;SDS011;36594;45.192;5.722;2023-04-07T02:40:05;0.23;;;0.23;;
34196;SDS011;36594;45.192;5.722;2023-04-07T02:42:54;0.33;;;0.33;;
34196;SDS011;36594;45.192;5.722;2023-04-07T02:45:43;0.23;;;0.23;;
34196;SDS011;36594;45.192;5.722;2023-04-07T02:48:31;0.20;;;0.20;;
34196;SDS011;36594;45.192;5.722;2023-04-07T02:51:20;0.20;;;0.20;;
34196;SDS011;36594;45.192;5.722;2023-04-07T02:54:09;0.30;;;0.30;;
34196;SDS011;36594;45.192;5.722;2023-04-07T02:56:57;0.20;;;0.20;;
34196;SDS011;36594;45.192;5.722;2023-04-07T02:59:47;0.10;;;0.10;;
34196;SDS011;36594;45.192;5.722;2023-04-07T03:02:36;0.30;;;0.30;;
34196;SDS011;36594;45.192;5.722;2023-04-07T03:05:25;0.20;;;0.20;;
34196;SDS011;36594;45.192;5.722;2023-04-07T03:08:13;0.30;;;0.30;;
34196;SDS011;36594;45.192;5.722;2023-04-07T03:11:03;0.30;;;0.30;;
34196;SDS011;36594;45.192;5.722;2023-04-07T03:13:51;0.80;;;0.40;;
34196;SDS011;36594;45.192;5.722;2023-04-07T03:16:40;0.20;;;0.20;;
34196;SDS011;36594;45.192;5.722;2023-04-07T03:19:31;0.23;;;0.23;;
34196;SDS011;36594;45.192;5.722;2023-04-07T03:22:19;0.30;;;0.30;;
34196;SDS011;36594;45.192;5.722;2023-04-07T03:25:09;0.25;;;0.25;;
34196;SDS011;36594;45.192;5.722;2023-04-07T03:27:57;0.30;;;0.30;;
34196;SDS011;36594;45.192;5.722;2023-04-07T03:30:48;0.30;;;0.30;;
34196;SDS011;36594;45.192;5.722;2023-04-07T03:33:37;0.30;;;0.30;;
34196;SDS011;36594;45.192;5.722;2023-04-07T03:36:27;0.30;;;0.30;;
34196;SDS011;36594;45.192;5.722;2023-04-07T03:39:19;0.30;;;0.30;;
34196;SDS011;36594;45.192;5.722;2023-04-07T03:42:09;0.30;;;0.30;;
34196;SDS011;36594;45.192;5.722;2023-04-07T03:44:57;0.42;;;0.37;;
34196;SDS011;36594;45.192;5.722;2023-04-07T03:47:46;0.30;;;0.30;;
34196;SDS011;36594;45.192;5.722;2023-04-07T03:50:35;0.30;;;0.30;;
34196;SDS011;36594;45.192;5.722;2023-04-07T03:53:26;0.30;;;0.30;;
34196;SDS011;36594;45.192;5.722;2023-04-07T03:56:15;0.40;;;0.40;;
34196;SDS011;36594;45.192;5.722;2023-04-07T03:59:05;0.25;;;0.25;;
34196;SDS011;36594;45.192;5.722;2023-04-07T04:01:55;0.37;;;0.37;;
34196;SDS011;36594;45.192;5.722;2023-04-07T04:04:44;0.33;;;0.33;;
34196;SDS011;36594;45.192;5.722;2023-04-07T04:07:33;0.30;;;0.30;;
34196;SDS011;36594;45.192;5.722;2023-04-07T04:10:23;0.30;;;0.30;;
34196;SDS011;36594;45.192;5.722;2023-04-07T04:13:12;0.30;;;0.30;;
34196;SDS011;36594;45.192;5.722;2023-04-07T04:16:01;0.20;;;0.20;;
34196;SDS011;36594;45.192;5.722;2023-04-07T04:18:51;0.40;;;0.40;;
34196;SDS011;36594;45.192;5.722;2023-04-07T04:21:40;0.40;;;0.40;;
34196;SDS011;36594;45.192;5.722;2023-04-07T04:24:29;0.40;;;0.40;;
34196;SDS011;36594;45.192;5.722;2023-04-07T04:27:18;0.40;;;0.40;;
34196;SDS011;36594;45.192;5.722;2023-04-07T04:30:08;0.30;;;0.30;;
34196;SDS011;36594;45.192;5.722;2023-04-07T04:33:08;0.20;;;0.20;;
34196;SDS011;36594;45.192;5.722;2023-04-07T04:35:58;0.83;;;0.20;;
34196;SDS011;36594;45.192;5.722;2023-04-07T04:38:47;0.35;;;0.35;;
34196;SDS011;36594;45.192;5.722;2023-04-07T04:41:37;0.20;;;0.20;;
34196;SDS011;36594;45.192;5.722;2023-04-07T04:44:26;0.17;;;0.17;;
34196;SDS011;36594;45.192;5.722;2023-04-07T04:47:17;0.40;;;0.30;;
34196;SDS011;36594;45.192;5.722;2023-04-07T04:50:06;0.20;;;0.20;;
34196;SDS011;36594;45.192;5.722;2023-04-07T04:52:56;0.10;;;0.10;;
34196;SDS011;36594;45.192;5.722;2023-04-07T04:55:45;0.33;;;0.33;;
34196;SDS011;36594;45.192;5.722;2023-04-07T04:58:37;0.40;;;0.25;;
34196;SDS011;36594;45.192;5.722;2023-04-07T05:01:29;0.70;;;0.30;;
34196;SDS011;36594;45.192;5.722;2023-04-07T05:04:19;0.30;;;0.30;;
34196;SDS011;36594;45.192;5.722;2023-04-07T05:07:10;0.30;;;0.30;;
34196;SDS011;36594;45.192;5.722;2023-04-07T05:09:58;0.37;;;0.37;;
34196;SDS011;36594;45.192;5.722;2023-04-07T05:12:49;0.30;;;0.30;;
34196;SDS011;36594;45.192;5.722;2023-04-07T05:15:39;0.35;;;0.35;;
34196;SDS011;36594;45.192;5.722;2023-04-07T05:18:29;0.40;;;0.30;;
34196;SDS011;36594;45.192;5.722;2023-04-07T05:21:18;0.23;;;0.23;;
34196;SDS011;36594;45.192;5.722;2023-04-07T05:24:08;0.60;;;0.30;;
34196;SDS011;36594;45.192;5.722;2023-04-07T05:26:57;0.30;;;0.30;;
34196;SDS011;36594;45.192;5.722;2023-04-07T05:29:46;0.20;;;0.20;;
34196;SDS011;36594;45.192;5.722;2023-04-07T05:32:37;0.30;;;0.30;;
34196;SDS011;36594;45.192;5.722;2023-04-07T05:35:27;0.20;;;0.20;;
34196;SDS011;36594;45.192;5.722;2023-04-07T05:38:16;0.20;;;0.20;;
34196;SDS011;36594;45.192;5.722;2023-04-07T05:41:05;0.50;;;0.50;;
34196;SDS011;36594;45.192;5.722;2023-04-07T05:43:54;0.30;;;0.30;;
34196;SDS011;36594;45.192;5.722;2023-04-07T05:46:42;0.40;;;0.40;;
34196;SDS011;36594;45.192;5.722;2023-04-07T05:49:32;0.40;;;0.40;;
34196;SDS011;36594;45.192;5.722;2023-04-07T05:52:23;0.30;;;0.30;;
34196;SDS011;36594;45.192;5.722;2023-04-07T05:55:13;0.20;;;0.20;;
34196;SDS011;36594;45.192;5.722;2023-04-07T05:58:02;0.10;;;0.10;;
34196;SDS011;36594;45.192;5.722;2023-04-07T06:00:51;0.37;;;0.37;;
34196;SDS011;36594;45.192;5.722;2023-04-07T06:03:40;0.30;;;0.30;;
34196;SDS011;36594;45.192;5.722;2023-04-07T06:06:30;0.30;;;0.30;;
34196;SDS011;36594;45.192;5.722;2023-04-07T06:09:19;0.33;;;0.33;;
34196;SDS011;36594;45.192;5.722;2023-04-07T06:12:10;0.40;;;0.40;;
34196;SDS011;36594;45.192;5.722;2023-04-07T06:15:00;0.33;;;0.33;;
34196;SDS011;36594;45.192;5.722;2023-04-07T06:17:48;0.20;;;0.20;;
34196;SDS011;36594;45.192;5.722;2023-04-07T06:20:37;0.20;;;0.20;;
34196;SDS011;36594;45.192;5.722;2023-04-07T06:23:25;0.30;;;0.30;;
34196;SDS011;36594;45.192;5.722;2023-04-07T06:26:14;2.20;;;0.30;;
34196;SDS011;36594;45.192;5.722;2023-04-07T06:29:02;0.30;;;0.30;;
34196;SDS011;36594;45.192;5.722;2023-04-07T06:31:51;0.10;;;0.10;;
34196;SDS011;36594;45.192;5.722;2023-04-07T06:34:39;0.23;;;0.23;;
34196;SDS011;36594;45.192;5.722;2023-04-07T06:37:28;0.30;;;0.30;;
34196;SDS011;36594;45.192;5.722;2023-04-07T06:40:17;0.30;;;0.30;;
34196;SDS011;36594;45.192;5.722;2023-04-07T06:43:05;0.23;;;0.20;;
34196;SDS011;36594;45.192;5.722;2023-04-07T06:46:02;0.20;;;0.20;;
34196;SDS011;36594;45.192;5.722;2023-04-07T06:48:51;0.23;;;0.23;;
34196;SDS011;36594;45.192;5.722;2023-04-07T06:51:40;0.30;;;0.30;;
34196;SDS011;36594;45.192;5.722;2023-04-07T06:54:28;0.37;;;0.30;;
34196;SDS011;36594;45.192;5.722;2023-04-07T06:57:17;0.20;;;0.20;;
34196;SDS011;36594;45.192;5.722;2023-04-07T07:00:06;0.23;;;0.23;;
34196;SDS011;36594;45.192;5.722;2023-04-07T07:02:56;0.30;;;0.30;;
34196;SDS011;36594;45.192;5.722;2023-04-07T07:05:44;0.80;;;0.30;;
34196;SDS011;36594;45.192;5.722;2023-04-07T07:08:32;0.30;;;0.30;;
34196;SDS011;36594;45.192;5.722;2023-04-07T07:11:21;0.33;;;0.30;;
34196;SDS011;36594;45.192;5.722;2023-04-07T07:14:09;0.53;;;0.40;;
34196;SDS011;36594;45.192;5.722;2023-04-07T07:16:57;0.23;;;0.23;;
34196;SDS011;36594;45.192;5.722;2023-04-07T07:19:46;0.30;;;0.30;;
34196;SDS011;36594;45.192;5.722;2023-04-07T07:22:34;0.20;;;0.20;;
34196;SDS011;36594;45.192;5.722;2023-04-07T07:25:22;0.20;;;0.20;;
34196;SDS011;36594;45.192;5.722;2023-04-07T07:28:12;0.30;;;0.30;;
34196;SDS011;36594;45.192;5.722;2023-04-07T07:31:07;0.30;;;0.30;;
34196;SDS011;36594;45.192;5.722;2023-04-07T07:33:58;0.30;;;0.30;;
34196;SDS011;36594;45.192;5.722;2023-04-07T07:36:47;0.30;;;0.30;;
34196;SDS011;36594;45.192;5.722;2023-04-07T07:39:35;0.70;;;0.40;;
34196;SDS011;36594;45.192;5.722;2023-04-07T07:42:24;0.20;;;0.20;;
34196;SDS011;36594;45.192;5.722;2023-04-07T07:45:12;0.23;;;0.23;;
34196;SDS011;36594;45.192;5.722;2023-04-07T07:48:01;0.40;;;0.20;;
34196;SDS011;36594;45.192;5.722;2023-04-07T07:50:49;0.20;;;0.20;;
34196;SDS011;36594;45.192;5.722;2023-04-07T07:53:38;0.68;;;0.37;;
34196;SDS011;36594;45.192;5.722;2023-04-07T07:56:26;0.28;;;0.28;;
34196;SDS011;36594;45.192;5.722;2023-04-07T07:59:14;0.40;;;0.40;;
34196;SDS011;36594;45.192;5.722;2023-04-07T08:02:02;0.40;;;0.40;;
34196;SDS011;36594;45.192;5.722;2023-04-07T08:04:51;0.20;;;0.20;;
34196;SDS011;36594;45.192;5.722;2023-04-07T08:07:40;0.37;;;0.30;;
34196;SDS011;36594;45.192;5.722;2023-04-07T08:10:29;0.40;;;0.40;;
34196;SDS011;36594;45.192;5.722;2023-04-07T08:13:17;0.30;;;0.30;;
34196;SDS011;36594;45.192;5.722;2023-04-07T08:16:05;1.30;;;0.40;;
34196;SDS011;36594;45.192;5.722;2023-04-07T08:18:54;0.30;;;0.30;;
34196;SDS011;36594;45.192;5.722;2023-04-07T08:21:42;0.30;;;0.30;;
34196;SDS011;36594;45.192;5.722;2023-04-07T08:24:31;0.20;;;0.20;;
34196;SDS011;36594;45.192;5.722;2023-04-07T08:27:20;0.40;;;0.20;;
34196;SDS011;36594;45.192;5.722;2023-04-07T08:30:08;0.23;;;0.23;;
34196;SDS011;36594;45.192;5.722;2023-04-07T08:32:57;0.23;;;0.23;;
34196;SDS011;36594;45.192;5.722;2023-04-07T08:35:45;0.40;;;0.40;;
34196;SDS011;36594;45.192;5.722;2023-04-07T08:38:34;0.37;;;0.37;;
34196;SDS011;36594;45.192;5.722;2023-04-07T08:41:42;0.28;;;0.28;;
34196;SDS011;36594;45.192;5.722;2023-04-07T08:44:26;0.20;;;0.20;;
34196;SDS011;36594;45.192;5.722;2023-04-07T08:47:16;0.20;;;0.20;;
34196;SDS011;36594;45.192;5.722;2023-04-07T08:50:07;0.30;;;0.30;;
34196;SDS011;36594;45.192;5.722;2023-04-07T08:52:56;1.15;;;0.47;;
34196;SDS011;36594;45.192;5.722;2023-04-07T08:55:47;0.30;;;0.30;;
34196;SDS011;36594;45.192;5.722;2023-04-07T08:58:35;0.20;;;0.20;;
34196;SDS011;36594;45.192;5.722;2023-04-07T09:01:24;0.30;;;0.30;;
34196;SDS011;36594;45.192;5.722;2023-04-07T09:04:14;0.40;;;0.40;;
34196;SDS011;36594;45.192;5.722;2023-04-07T09:07:03;0.40;;;0.40;;
34196;SDS011;36594;45.192;5.722;2023-04-07T09:09:51;0.45;;;0.45;;
34196;SDS011;36594;45.192;5.722;2023-04-07T09:12:42;0.50;;;0.50;;
34196;SDS011;36594;45.192;5.722;2023-04-07T09:15:31;0.50;;;0.50;;
34196;SDS011;36594;45.192;5.722;2023-04-07T09:18:19;0.40;;;0.40;;
34196;SDS011;36594;45.192;5.722;2023-04-07T09:21:08;0.50;;;0.50;;
34196;SDS011;36594;45.192;5.722;2023-04-07T09:23:57;0.47;;;0.47;;
34196;SDS011;36594;45.192;5.722;2023-04-07T09:26:45;0.50;;;0.50;;
34196;SDS011;36594;45.192;5.722;2023-04-07T09:29:33;2.22;;;0.68;;
34196;SDS011;36594;45.192;5.722;2023-04-07T09:32:35;0.50;;;0.50;;
34196;SDS011;36594;45.192;5.722;2023-04-07T09:35:25;0.50;;;0.50;;
34196;SDS011;36594;45.192;5.722;2023-04-07T09:38:14;0.60;;;0.60;;
34196;SDS011;36594;45.192;5.722;2023-04-07T09:41:10;0.60;;;0.60;;
34196;SDS011;36594;45.192;5.722;2023-04-07T09:44:00;0.50;;;0.50;;
34196;SDS011;36594;45.192;5.722;2023-04-07T09:46:50;0.50;;;0.50;;
34196;SDS011;36594;45.192;5.722;2023-04-07T09:49:49;0.50;;;0.50;;
34196;SDS011;36594;45.192;5.722;2023-04-07T09:52:49;0.50;;;0.50;;
34196;SDS011;36594;45.192;5.722;2023-04-07T09:55:39;0.40;;;0.40;;
34196;SDS011;36594;45.192;5.722;2023-04-07T09:58:28;0.50;;;0.50;;
34196;SDS011;36594;45.192;5.722;2023-04-07T10:01:17;0.42;;;0.42;;
34196;SDS011;36594;45.192;5.722;2023-04-07T10:04:06;0.42;;;0.42;;
34196;SDS011;36594;45.192;5.722;2023-04-07T10:06:56;0.47;;;0.47;;
34196;SDS011;36594;45.192;5.722;2023-04-07T10:09:45;0.60;;;0.60;;
34196;SDS011;36594;45.192;5.722;2023-04-07T10:12:35;0.57;;;0.57;;
34196;SDS011;36594;45.192;5.722;2023-04-07T10:15:24;0.70;;;0.70;;
34196;SDS011;36594;45.192;5.722;2023-04-07T10:18:12;0.70;;;0.70;;
34196;SDS011;36594;45.192;5.722;2023-04-07T10:21:04;0.68;;;0.68;;
34196;SDS011;36594;45.192;5.722;2023-04-07T10:23:58;0.70;;;0.70;;
34196;SDS011;36594;45.192;5.722;2023-04-07T10:26:50;0.80;;;0.63;;
34196;SDS011;36594;45.192;5.722;2023-04-07T10:29:40;0.73;;;0.73;;
34196;SDS011;36594;45.192;5.722;2023-04-07T10:32:30;0.90;;;0.80;;
34196;SDS011;36594;45.192;5.722;2023-04-07T10:35:19;0.60;;;0.60;;
34196;SDS011;36594;45.192;5.722;2023-04-07T10:38:12;0.72;;;0.72;;
34196;SDS011;36594;45.192;5.722;2023-04-07T10:47:29;0.72;;;0.72;;
34196;SDS011;36594;45.192;5.722;2023-04-07T10:50:21;0.57;;;0.57;;
34196;SDS011;36594;45.192;5.722;2023-04-07T10:53:12;0.60;;;0.60;;
34196;SDS011;36594;45.192;5.722;2023-04-07T10:56:02;0.70;;;0.70;;
34196;SDS011;36594;45.192;5.722;2023-04-07T10:59:12;0.83;;;0.83;;
34196;SDS011;36594;45.192;5.722;2023-04-07T11:01:42;0.72;;;0.72;;
34196;SDS011;36594;45.192;5.722;2023-04-07T11:04:35;0.70;;;0.70;;
34196;SDS011;36594;45.192;5.722;2023-04-07T11:07:41;0.90;;;0.90;;
34196;SDS011;36594;45.192;5.722;2023-04-07T11:10:30;0.80;;;0.80;;
34196;SDS011;36594;45.192;5.722;2023-04-07T11:13:18;0.70;;;0.70;;
34196;SDS011;36594;45.192;5.722;2023-04-07T11:16:08;0.68;;;0.68;;
34196;SDS011;36594;45.192;5.722;2023-04-07T11:18:57;0.80;;;0.80;;
34196;SDS011;36594;45.192;5.722;2023-04-07T11:21:45;0.88;;;0.88;;
34196;SDS011;36594;45.192;5.722;2023-04-07T11:24:37;1.00;;;1.00;;
34196;SDS011;36594;45.192;5.722;2023-04-07T11:27:25;0.90;;;0.90;;
34196;SDS011;36594;45.192;5.722;2023-04-07T11:30:14;0.70;;;0.70;;
34196;SDS011;36594;45.192;5.722;2023-04-07T11:33:03;0.90;;;0.90;;
34196;SDS011;36594;45.192;5.722;2023-04-07T11:35:55;0.73;;;0.73;;
34196;SDS011;36594;45.192;5.722;2023-04-07T11:38:46;0.70;;;0.70;;
34196;SDS011;36594;45.192;5.722;2023-04-07T11:41:40;0.90;;;0.90;;
34196;SDS011;36594;45.192;5.722;2023-04-07T11:44:26;0.70;;;0.70;;
34196;SDS011;36594;45.192;5.722;2023-04-07T11:47:14;0.73;;;0.73;;
34196;SDS011;36594;45.192;5.722;2023-04-07T11:50:02;0.80;;;0.80;;
34196;SDS011;36594;45.192;5.722;2023-04-07T11:52:52;0.80;;;0.80;;
34196;SDS011;36594;45.192;5.722;2023-04-07T11:55:41;0.70;;;0.70;;
34196;SDS011;36594;45.192;5.722;2023-04-07T11:58:29;0.80;;;0.80;;
34196;SDS011;36594;45.192;5.722;2023-04-07T12:01:18;0.82;;;0.82;;
34196;SDS011;36594;45.192;5.722;2023-04-07T12:04:11;0.70;;;0.70;;
34196;SDS011;36594;45.192;5.722;2023-04-07T12:07:07;0.90;;;0.90;;
34196;SDS011;36594;45.192;5.722;2023-04-07T12:09:57;0.80;;;0.80;;
34196;SDS011;36594;45.192;5.722;2023-04-07T12:12:45;1.05;;;1.05;;
34196;SDS011;36594;45.192;5.722;2023-04-07T12:15:35;0.88;;;0.88;;
34196;SDS011;36594;45.192;5.722;2023-04-07T12:18:23;0.90;;;0.90;;
34196;SDS011;36594;45.192;5.722;2023-04-07T12:21:12;0.80;;;0.80;;
34196;SDS011;36594;45.192;5.722;2023-04-07T12:24:01;0.90;;;0.90;;
34196;SDS011;36594;45.192;5.722;2023-04-07T12:26:49;0.70;;;0.70;;
34196;SDS011;36594;45.192;5.722;2023-04-07T12:29:37;0.80;;;0.80;;
34196;SDS011;36594;45.192;5.722;2023-04-07T12:32:26;0.90;;;0.90;;
34196;SDS011;36594;45.192;5.722;2023-04-07T12:35:14;0.90;;;0.88;;
34196;SDS011;36594;45.192;5.722;2023-04-07T12:38:03;0.88;;;0.88;;
34196;SDS011;36594;45.192;5.722;2023-04-07T12:40:51;1.22;;;1.15;;
34196;SDS011;36594;45.192;5.722;2023-04-07T12:43:39;0.95;;;0.90;;
34196;SDS011;36594;45.192;5.722;2023-04-07T12:46:28;0.88;;;0.88;;
34196;SDS011;36594;45.192;5.722;2023-04-07T12:49:16;0.78;;;0.78;;
34196;SDS011;36594;45.192;5.722;2023-04-07T12:52:04;0.90;;;0.90;;
34196;SDS011;36594;45.192;5.722;2023-04-07T12:54:53;0.85;;;0.85;;
34196;SDS011;36594;45.192;5.722;2023-04-07T12:57:42;1.20;;;1.00;;
34196;SDS011;36594;45.192;5.722;2023-04-07T13:00:31;1.10;;;1.10;;
34196;SDS011;36594;45.192;5.722;2023-04-07T13:03:19;0.93;;;0.90;;
34196;SDS011;36594;45.192;5.722;2023-04-07T13:06:08;0.85;;;0.85;;
34196;SDS011;36594;45.192;5.722;2023-04-07T13:08:57;0.78;;;0.78;;
34196;SDS011;36594;45.192;5.722;2023-04-07T13:11:45;0.70;;;0.70;;
34196;SDS011;36594;45.192;5.722;2023-04-07T13:14:33;1.00;;;0.90;;
34196;SDS011;36594;45.192;5.722;2023-04-07T13:17:22;0.72;;;0.72;;
34196;SDS011;36594;45.192;5.722;2023-04-07T13:20:10;0.70;;;0.70;;
34196;SDS011;36594;45.192;5.722;2023-04-07T13:22:59;0.83;;;0.83;;
34196;SDS011;36594;45.192;5.722;2023-04-07T13:25:47;1.00;;;1.00;;
34196;SDS011;36594;45.192;5.722;2023-04-07T13:28:36;0.70;;;0.70;;
34196;SDS011;36594;45.192;5.722;2023-04-07T13:31:25;0.98;;;0.98;;
34196;SDS011;36594;45.192;5.722;2023-04-07T13:34:14;0.78;;;0.78;;
34196;SDS011;36594;45.192;5.722;2023-04-07T13:37:03;1.12;;;0.90;;
34196;SDS011;36594;45.192;5.722;2023-04-07T13:39:52;0.90;;;0.90;;
34196;SDS011;36594;45.192;5.722;2023-04-07T13:42:41;0.80;;;0.80;;
34196;SDS011;36594;45.192;5.722;2023-04-07T13:45:30;1.07;;;0.98;;
34196;SDS011;36594;45.192;5.722;2023-04-07T13:48:19;0.90;;;0.90;;
34196;SDS011;36594;45.192;5.722;2023-04-07T13:51:07;0.80;;;0.80;;
34196;SDS011;36594;45.192;5.722;2023-04-07T13:53:57;0.80;;;0.80;;
34196;SDS011;36594;45.192;5.722;2023-04-07T13:56:46;1.10;;;1.10;;
34196;SDS011;36594;45.192;5.722;2023-04-07T13:59:34;0.90;;;0.90;;
34196;SDS011;36594;45.192;5.722;2023-04-07T14:02:24;0.70;;;0.70;;
34196;SDS011;36594;45.192;5.722;2023-04-07T14:05:17;1.05;;;1.05;;
34196;SDS011;36594;45.192;5.722;2023-04-07T14:08:05;0.90;;;0.90;;
34196;SDS011;36594;45.192;5.722;2023-04-07T14:10:53;0.90;;;0.90;;
34196;SDS011;36594;45.192;5.722;2023-04-07T14:13:42;0.98;;;0.98;;
34196;SDS011;36594;45.192;5.722;2023-04-07T14:16:32;0.90;;;0.90;;
34196;SDS011;36594;45.192;5.722;2023-04-07T14:19:20;0.72;;;0.72;;
34196;SDS011;36594;45.192;5.722;2023-04-07T14:22:09;0.70;;;0.70;;
34196;SDS011;36594;45.192;5.722;2023-04-07T14:24:57;0.90;;;0.90;;
34196;SDS011;36594;45.192;5.722;2023-04-07T14:27:46;0.72;;;0.72;;
34196;SDS011;36594;45.192;5.722;2023-04-07T14:30:35;1.40;;;1.05;;
34196;SDS011;36594;45.192;5.722;2023-04-07T14:33:26;0.80;;;0.80;;
34196;SDS011;36594;45.192;5.722;2023-04-07T14:36:15;0.70;;;0.70;;
34196;SDS011;36594;45.192;5.722;2023-04-07T14:39:03;0.90;;;0.90;;
34196;SDS011;36594;45.192;5.722;2023-04-07T14:41:52;1.12;;;1.05;;
34196;SDS011;36594;45.192;5.722;2023-04-07T14:44:41;1.00;;;1.00;;
34196;SDS011;36594;45.192;5.722;2023-04-07T14:47:29;0.88;;;0.88;;
34196;SDS011;36594;45.192;5.722;2023-04-07T14:50:17;0.82;;;0.82;;
34196;SDS011;36594;45.192;5.722;2023-04-07T14:53:05;0.80;;;0.80;;
34196;SDS011;36594;45.192;5.722;2023-04-07T14:55:54;1.35;;;0.82;;
34196;SDS011;36594;45.192;5.722;2023-04-07T14:58:43;0.93;;;0.93;;
34196;SDS011;36594;45.192;5.722;2023-04-07T15:01:31;0.82;;;0.82;;
34196;SDS011;36594;45.192;5.722;2023-04-07T15:04:19;0.90;;;0.85;;
34196;SDS011;36594;45.192;5.722;2023-04-07T15:07:08;0.78;;;0.78;;
34196;SDS011;36594;45.192;5.722;2023-04-07T15:09:56;0.90;;;0.90;;
34196;SDS011;36594;45.192;5.722;2023-04-07T15:12:46;0.90;;;0.90;;
34196;SDS011;36594;45.192;5.722;2023-04-07T15:15:37;0.88;;;0.82;;
34196;SDS011;36594;45.192;5.722;2023-04-07T15:18:25;0.70;;;0.70;;
34196;SDS011;36594;45.192;5.722;2023-04-07T15:21:13;0.80;;;0.80;;
34196;SDS011;36594;45.192;5.722;2023-04-07T15:24:02;0.80;;;0.80;;
34196;SDS011;36594;45.192;5.722;2023-04-07T15:26:50;0.90;;;0.90;;
34196;SDS011;36594;45.192;5.722;2023-04-07T15:29:38;0.90;;;0.90;;
34196;SDS011;36594;45.192;5.722;2023-04-07T15:32:29;0.90;;;0.90;;
34196;SDS011;36594;45.192;5.722;2023-04-07T15:35:18;1.00;;;1.00;;
34196;SDS011;36594;45.192;5.722;2023-04-07T15:38:06;0.88;;;0.88;;
34196;SDS011;36594;45.192;5.722;2023-04-07T15:40:54;0.80;;;0.80;;
34196;SDS011;36594;45.192;5.722;2023-04-07T15:43:43;0.80;;;0.80;;
34196;SDS011;36594;45.192;5.722;2023-04-07T15:46:31;0.80;;;0.80;;
34196;SDS011;36594;45.192;5.722;2023-04-07T15:49:20;0.70;;;0.70;;
34196;SDS011;36594;45.192;5.722;2023-04-07T15:52:08;0.85;;;0.85;;
34196;SDS011;36594;45.192;5.722;2023-04-07T15:54:57;0.60;;;0.60;;
34196;SDS011;36594;45.192;5.722;2023-04-07T15:57:45;1.00;;;0.90;;
34196;SDS011;36594;45.192;5.722;2023-04-07T16:00:34;1.00;;;0.90;;
34196;SDS011;36594;45.192;5.722;2023-04-07T16:03:24;0.80;;;0.80;;
34196;SDS011;36594;45.192;5.722;2023-04-07T16:06:14;1.00;;;1.00;;
34196;SDS011;36594;45.192;5.722;2023-04-07T16:09:02;0.70;;;0.70;;
34196;SDS011;36594;45.192;5.722;2023-04-07T16:11:51;0.90;;;0.90;;
34196;SDS011;36594;45.192;5.722;2023-04-07T16:14:40;0.90;;;0.90;;
34196;SDS011;36594;45.192;5.722;2023-04-07T16:17:29;0.50;;;0.50;;
34196;SDS011;36594;45.192;5.722;2023-04-07T16:20:17;0.80;;;0.80;;
34196;SDS011;36594;45.192;5.722;2023-04-07T16:23:06;1.05;;;1.00;;
34196;SDS011;36594;45.192;5.722;2023-04-07T16:25:55;0.78;;;0.78;;
34196;SDS011;36594;45.192;5.722;2023-04-07T16:28:43;0.68;;;0.68;;
34196;SDS011;36594;45.192;5.722;2023-04-07T16:31:31;0.87;;;0.87;;
34196;SDS011;36594;45.192;5.722;2023-04-07T16:34:20;0.80;;;0.80;;
34196;SDS011;36594;45.192;5.722;2023-04-07T16:37:08;0.90;;;0.90;;
34196;SDS011;36594;45.192;5.722;2023-04-07T16:39:57;0.80;;;0.80;;
34196;SDS011;36594;45.192;5.722;2023-04-07T16:42:46;0.90;;;0.90;;
34196;SDS011;36594;45.192;5.722;2023-04-07T16:45:34;0.70;;;0.70;;
34196;SDS011;36594;45.192;5.722;2023-04-07T16:48:23;0.60;;;0.60;;
34196;SDS011;36594;45.192;5.722;2023-04-07T16:51:15;0.60;;;0.60;;
34196;SDS011;36594;45.192;5.722;2023-04-07T16:54:04;0.60;;;0.60;;
34196;SDS011;36594;45.192;5.722;2023-04-07T16:56:52;0.60;;;0.60;;
34196;SDS011;36594;45.192;5.722;2023-04-07T16:59:40;0.70;;;0.70;;
34196;SDS011;36594;45.192;5.722;2023-04-07T17:02:29;0.70;;;0.70;;
34196;SDS011;36594;45.192;5.722;2023-04-07T17:05:17;0.90;;;0.70;;
34196;SDS011;36594;45.192;5.722;2023-04-07T17:08:05;0.78;;;0.78;;
34196;SDS011;36594;45.192;5.722;2023-04-07T17:10:54;0.60;;;0.60;;
34196;SDS011;36594;45.192;5.722;2023-04-07T17:13:42;0.82;;;0.82;;
34196;SDS011;36594;45.192;5.722;2023-04-07T17:16:31;0.70;;;0.70;;